Time;durP1;ratioP1;P1;durP2;ratioP2;P2;SDS_P1;SDS_P2;PMS_P1;PMS_P2;Temp;Humidity;BMP_temperature;BMP_pressure;BME280_temperature;BME280_humidity;BME280_pressure;Samples;Min_cycle;Max_cycle;Signal;HPM_P1;HPM_P2
2021/01/15 00:01:04;;;;;;;4.93;4.10;;;;;;;11.78;54.23;101000.34;4921999;28;111032;-61
2021/01/15 00:03:35;;;;;;;4.97;4.05;;;;;;;11.74;54.29;100998.44;4923214;28;98622;-61
2021/01/15 00:06:05;;;;;;;5.25;4.32;;;;;;;11.75;54.09;101003.59;4923356;28;98885;-61
2021/01/15 00:08:38;;;;;;;4.63;4.10;;;;;;;11.75;53.96;101000.03;4904990;28;99281;-61
2021/01/15 00:11:20;;;;;;;6.65;4.53;;;;;;;11.71;54.30;101007.88;4905122;28;103466;-61
2021/01/15 00:13:46;;;;;;;5.25;4.30;;;;;;;11.74;54.12;101004.63;4915362;28;99208;-61
2021/01/15 00:16:32;;;;;;;4.72;4.18;;;;;;;11.72;54.41;101014.09;4922280;28;112464;-61
2021/01/15 00:19:00;;;;;;;6.05;4.20;;;;;;;11.73;54.35;101010.31;4905392;28;98486;-61
2021/01/15 00:21:28;;;;;;;5.05;4.38;;;;;;;11.75;54.65;101011.69;4923278;28;97810;-61
2021/01/15 00:24:01;;;;;;;4.93;4.00;;;;;;;11.74;53.80;101018.16;4908200;28;98313;-61
2021/01/15 00:26:28;;;;;;;4.95;4.22;;;;;;;11.76;53.89;101012.50;4922632;28;116591;-61
2021/01/15 00:28:55;;;;;;;5.13;4.30;;;;;;;11.77;54.04;101014.13;4904931;28;100231;-61
2021/01/15 00:31:32;;;;;;;5.53;4.20;;;;;;;11.77;54.02;101016.81;4923307;28;98007;-61
2021/01/15 00:33:58;;;;;;;5.35;4.20;;;;;;;11.76;54.17;101021.41;4920947;28;102081;-61
2021/01/15 00:36:24;;;;;;;4.80;4.25;;;;;;;11.77;53.85;101019.53;4903211;28;99872;-61
2021/01/15 00:38:50;;;;;;;4.95;4.07;;;;;;;11.80;53.77;101014.41;4921863;28;127584;-61
2021/01/15 00:41:16;;;;;;;5.50;4.18;;;;;;;11.77;54.29;101024.91;4919456;28;122322;-61
2021/01/15 00:43:42;;;;;;;5.38;4.38;;;;;;;11.76;53.89;101026.81;4903302;28;128119;-61
2021/01/15 00:46:14;;;;;;;4.78;4.28;;;;;;;11.77;54.16;101025.72;4922405;28;128048;-61
2021/01/15 00:48:40;;;;;;;5.20;4.57;;;;;;;11.78;54.28;101029.25;4904551;28;97915;-61
2021/01/15 00:51:09;;;;;;;5.03;4.53;;;;;;;11.76;53.96;101032.22;4921086;28;122460;-61
2021/01/15 00:53:36;;;;;;;6.13;4.40;;;;;;;11.78;54.02;101032.75;4922209;28;99583;-61
2021/01/15 00:56:02;;;;;;;5.43;4.03;;;;;;;11.76;54.31;101032.22;4904314;28;98445;-61
2021/01/15 00:58:28;;;;;;;5.57;4.18;;;;;;;11.77;54.37;101033.84;4914399;28;99181;-61
2021/01/15 01:00:54;;;;;;;5.20;4.30;;;;;;;11.78;54.26;101040.84;4921983;28;98018;-61
2021/01/15 01:03:21;;;;;;;4.63;4.13;;;;;;;11.78;54.23;101040.03;4906850;28;98043;-61
2021/01/15 01:05:47;;;;;;;5.20;4.30;;;;;;;11.78;54.36;101046.25;4920877;28;124277;-62
2021/01/15 01:08:13;;;;;;;5.00;4.15;;;;;;;11.75;54.33;101044.09;4920834;28;124151;-61
2021/01/15 01:10:40;;;;;;;5.00;4.28;;;;;;;11.77;53.58;101043.81;4922029;28;123359;-60
2021/01/15 01:13:06;;;;;;;5.10;4.38;;;;;;;11.78;53.88;101043.56;4923202;28;98272;-61
2021/01/15 01:15:32;;;;;;;4.70;3.97;;;;;;;11.76;53.99;101042.22;4903923;28;128935;-61
2021/01/15 01:17:58;;;;;;;5.97;4.15;;;;;;;11.76;54.37;101042.22;4921234;28;128342;-61
2021/01/15 01:20:24;;;;;;;4.85;4.30;;;;;;;11.76;53.69;101040.31;4903826;28;121636;-61
2021/01/15 01:22:50;;;;;;;5.25;4.22;;;;;;;11.76;54.25;101045.72;4903792;28;99275;-61
2021/01/15 01:25:17;;;;;;;5.15;4.57;;;;;;;11.76;54.01;101048.41;4922026;28;98254;-61
2021/01/15 01:27:44;;;;;;;5.78;4.30;;;;;;;11.74;54.24;101049.75;4914533;28;98173;-61
2021/01/15 01:30:12;;;;;;;5.10;4.32;;;;;;;11.76;54.33;101053.00;4921498;28;97857;-61
2021/01/15 01:32:38;;;;;;;4.97;4.10;;;;;;;11.74;54.49;101049.75;4914723;28;98786;-61
2021/01/15 01:35:06;;;;;;;4.90;4.30;;;;;;;11.74;54.25;101042.44;4916187;28;128066;-61
2021/01/15 01:37:32;;;;;;;4.78;3.90;;;;;;;11.73;54.01;101048.94;4921171;28;98369;-61
2021/01/15 01:39:58;;;;;;;5.18;4.22;;;;;;;11.72;54.28;101043.81;4921762;28;122882;-61
2021/01/15 01:42:24;;;;;;;5.60;4.60;;;;;;;11.72;54.11;101046.50;4920601;28;128060;-61
2021/01/15 01:44:50;;;;;;;4.75;3.88;;;;;;;11.72;54.18;101036.50;4920776;28;128001;-61
2021/01/15 01:47:16;;;;;;;5.22;4.45;;;;;;;11.72;53.89;101035.72;4921136;28;98106;-61
2021/01/15 01:49:42;;;;;;;4.68;4.18;;;;;;;11.70;54.35;101035.94;4902967;28;122809;-61
2021/01/15 01:52:08;;;;;;;5.65;4.40;;;;;;;11.71;54.20;101042.16;4922227;28;98425;-61
2021/01/15 01:54:35;;;;;;;5.13;4.30;;;;;;;11.69;54.37;101036.22;4919783;28;128287;-61
2021/01/15 01:57:02;;;;;;;4.80;4.22;;;;;;;11.70;54.55;101040.53;4902780;28;111595;-61
2021/01/15 01:59:28;;;;;;;5.00;4.35;;;;;;;11.71;54.02;101039.44;4920903;28;98023;-61
2021/01/15 02:01:55;;;;;;;5.07;4.18;;;;;;;11.70;54.59;101033.25;4918101;28;128326;-61
2021/01/15 02:04:21;;;;;;;5.00;4.13;;;;;;;11.69;54.04;101036.22;4913811;28;115473;-61
2021/01/15 02:06:48;;;;;;;4.68;4.18;;;;;;;11.70;53.74;101035.94;4920820;28;98661;-61
2021/01/15 02:09:14;;;;;;;6.07;4.28;;;;;;;11.72;54.02;101036.50;4894125;28;121582;-61
2021/01/15 02:12:10;;;;;;;5.03;4.53;;;;;;;11.71;54.34;101040.28;4901760;28;112920;-62
2021/01/15 02:15:13;;;;;;;4.85;4.28;;;;;;;11.67;54.39;101030.25;4873920;28;98244;-62
2021/01/15 02:17:47;;;;;;;;;;;;;;;11.63;54.51;101031.84;4919511;28;98526;-62
2021/01/15 02:20:52;;;;;;;4.90;3.97;;;;;;;11.62;54.35;101022.94;4921553;28;97882;-61
2021/01/15 02:23:37;;;;;;;5.70;4.30;;;;;;;11.60;54.55;101025.09;4877391;28;113106;-62
2021/01/15 02:26:34;;;;;;;5.25;4.20;;;;;;;11.65;54.17;101027.81;4902590;28;115497;-61
2021/01/15 02:29:11;;;;;;;5.32;4.60;;;;;;;11.65;54.43;101038.63;4917985;28;118421;-61
2021/01/15 02:31:46;;;;;;;4.97;4.13;;;;;;;11.66;54.29;101024.03;4880471;28;111445;-61
2021/01/15 02:34:43;;;;;;;4.88;4.28;;;;;;;11.66;54.31;101031.34;4881697;28;98695;-61
2021/01/15 02:37:29;;;;;;;4.88;3.85;;;;;;;11.66;54.03;101032.13;4883992;28;98848;-61
2021/01/15 02:40:17;;;;;;;4.45;3.90;;;;;;;11.67;53.97;101036.50;4884391;28;118200;-62
2021/01/15 02:42:43;;;;;;;5.43;4.30;;;;;;;11.69;53.99;101038.91;4884802;28;110302;-61
2021/01/15 02:45:11;;;;;;;5.53;3.92;;;;;;;11.69;54.54;101038.91;4882819;28;129031;-61
2021/01/15 02:47:45;;;;;;;4.88;3.90;;;;;;;11.72;54.29;101033.00;4899571;28;119730;-61
2021/01/15 02:50:11;;;;;;;4.55;4.00;;;;;;;11.70;54.07;101035.94;4902083;28;98371;-61
2021/01/15 02:52:37;;;;;;;4.53;4.00;;;;;;;11.74;54.00;101036.25;4881529;28;122804;-62
2021/01/15 02:55:04;;;;;;;4.75;3.85;;;;;;;11.75;54.02;101041.41;4882481;28;126823;-61
2021/01/15 02:57:30;;;;;;;4.18;3.55;;;;;;;11.74;53.80;101041.63;4904553;28;99211;-61
2021/01/15 02:59:56;;;;;;;4.78;4.00;;;;;;;11.72;54.16;101038.41;4919703;28;126748;-62
2021/01/15 03:02:56;;;;;;;4.20;3.60;;;;;;;11.78;53.91;101040.03;4901546;28;118193;-61
2021/01/15 03:05:23;;;;;;;4.45;3.53;;;;;;;11.80;54.05;101038.72;4878985;28;99133;-61
2021/01/15 03:07:50;;;;;;;5.25;3.70;;;;;;;11.83;54.04;101036.56;4901630;28;108224;-62
2021/01/15 03:10:20;;;;;;;3.88;3.47;;;;;;;11.85;53.59;101035.25;4902665;28;98009;-61
2021/01/15 03:12:46;;;;;;;3.90;3.42;;;;;;;11.88;53.38;101029.34;4901950;28;97854;-61
2021/01/15 03:15:13;;;;;;;3.95;3.50;;;;;;;11.88;54.00;101032.03;4902050;28;116241;-61
2021/01/15 03:17:43;;;;;;;4.32;3.70;;;;;;;11.91;53.66;101030.72;4900704;28;112665;-62
2021/01/15 03:20:09;;;;;;;4.65;3.40;;;;;;;11.92;53.32;101038.53;4902557;28;108328;-62
2021/01/15 03:22:35;;;;;;;4.03;3.63;;;;;;;11.93;53.17;101045.56;4914403;28;98201;-61
2021/01/15 03:25:02;;;;;;;3.90;3.50;;;;;;;11.92;53.53;101043.94;4896298;28;128170;-62
2021/01/15 03:27:50;;;;;;;3.90;3.40;;;;;;;11.91;53.29;101041.53;4914698;28;116297;-61
2021/01/15 03:30:22;;;;;;;4.25;3.22;;;;;;;11.91;53.42;101044.22;4905112;28;98249;-62
2021/01/15 03:32:50;;;;;;;4.03;3.25;;;;;;;11.95;53.50;101042.63;4918168;28;112744;-62
2021/01/15 03:35:22;;;;;;;3.72;3.20;;;;;;;11.92;53.44;101046.66;4919810;28;117129;-62
2021/01/15 03:38:02;;;;;;;4.05;3.45;;;;;;;11.93;53.74;101047.47;4910272;28;98706;-62
2021/01/15 03:40:39;;;;;;;3.47;2.97;;;;;;;11.95;53.08;101048.84;4913932;28;98025;-62
2021/01/15 03:43:16;;;;;;;4.28;3.22;;;;;;;11.90;53.58;101042.56;4902794;28;97901;-62
2021/01/15 03:45:43;;;;;;;3.85;3.38;;;;;;;11.93;53.40;101042.06;4919962;28;98982;-61
2021/01/15 03:48:10;;;;;;;4.35;3.30;;;;;;;11.91;53.03;101047.72;4901592;28;99176;-62
2021/01/15 03:50:37;;;;;;;4.72;3.25;;;;;;;11.91;53.16;101047.72;4920424;28;97867;-62
2021/01/15 03:53:03;;;;;;;4.53;3.15;;;;;;;11.93;53.21;101048.25;4919990;28;97824;-62
2021/01/15 03:55:29;;;;;;;4.75;3.10;;;;;;;11.93;53.27;101039.34;4920192;28;98478;-62
2021/01/15 03:57:55;;;;;;;3.95;3.20;;;;;;;11.93;53.47;101047.47;4918028;28;98388;-62
2021/01/15 04:00:22;;;;;;;3.92;3.20;;;;;;;11.90;53.46;101048.78;4914571;28;127462;-62
2021/01/15 04:02:48;;;;;;;4.47;3.05;;;;;;;11.91;53.61;101045.03;4914832;28;98450;-62
2021/01/15 04:05:14;;;;;;;3.50;2.67;;;;;;;11.91;53.10;101045.03;4921281;28;98910;-62
2021/01/15 04:07:43;;;;;;;3.63;3.17;;;;;;;11.90;53.57;101048.78;4901803;28;98574;-62
2021/01/15 04:10:12;;;;;;;4.15;2.70;;;;;;;11.89;53.49;101052.56;4919209;28;127279;-61
2021/01/15 04:12:39;;;;;;;2.90;2.60;;;;;;;11.90;53.66;101045.28;4921501;28;110861;-61
2021/01/15 04:15:08;;;;;;;2.80;2.47;;;;;;;11.90;53.37;101046.09;4923605;28;98637;-61
2021/01/15 04:17:35;;;;;;;3.50;2.60;;;;;;;11.89;53.01;101046.34;4922077;28;116936;-62
2021/01/15 04:20:02;;;;;;;3.13;2.50;;;;;;;11.89;53.25;101049.06;4923566;28;97907;-61
2021/01/15 04:22:35;;;;;;;3.05;2.50;;;;;;;11.86;53.39;101044.16;4920704;28;113222;-62
2021/01/15 04:25:02;;;;;;;3.45;2.22;;;;;;;11.84;53.50;101043.63;4904705;28;100461;-62
2021/01/15 04:27:29;;;;;;;3.25;2.40;;;;;;;11.86;53.20;101046.88;4921331;28;119624;-62
2021/01/15 04:29:55;;;;;;;3.80;2.20;;;;;;;11.84;53.75;101041.75;4921948;28;117966;-62
2021/01/15 04:32:23;;;;;;;3.67;2.25;;;;;;;11.86;53.50;101044.97;4921311;28;122720;-62
2021/01/15 04:34:49;;;;;;;2.85;2.10;;;;;;;11.84;53.33;101049.03;4923255;28;98231;-61
2021/01/15 04:37:15;;;;;;;2.88;1.98;;;;;;;11.80;53.22;101049.53;4918815;28;127317;-61
2021/01/15 04:39:41;;;;;;;3.38;2.30;;;;;;;11.78;53.63;101045.44;4917150;28;110007;-61
2021/01/15 04:42:08;;;;;;;2.83;2.00;;;;;;;11.77;53.67;101055.44;4920685;28;98258;-62
2021/01/15 04:44:35;;;;;;;3.22;1.88;;;;;;;11.77;53.41;101050.03;4917142;28;113009;-62
2021/01/15 04:47:04;;;;;;;3.03;2.08;;;;;;;11.73;53.54;101053.53;4921489;28;98531;-62
2021/01/15 04:49:30;;;;;;;3.22;2.03;;;;;;;11.72;53.13;101054.59;4915889;28;99553;-62
2021/01/15 04:52:01;;;;;;;3.28;1.88;;;;;;;11.72;53.31;101057.31;4904721;28;98000;-61
2021/01/15 04:54:41;;;;;;;3.03;1.80;;;;;;;11.69;53.44;101065.94;4909501;28;98590;-62
2021/01/15 04:57:16;;;;;;;3.13;1.98;;;;;;;11.65;53.61;101062.13;4900176;28;121269;-61
2021/01/15 04:59:44;;;;;;;3.00;2.00;;;;;;;11.68;53.27;101059.72;4883644;28;128481;-61
2021/01/15 05:02:12;;;;;;;2.50;1.83;;;;;;;11.68;53.64;101067.00;4902760;28;113173;-62
2021/01/15 05:04:38;;;;;;;3.03;1.85;;;;;;;11.73;53.03;101062.44;4903049;28;98760;-62
2021/01/15 05:07:06;;;;;;;2.38;1.90;;;;;;;11.71;53.18;101063.75;4903141;28;98513;-61
2021/01/15 05:09:44;;;;;;;2.85;1.98;;;;;;;11.70;53.28;101065.66;4885359;28;98184;-62
2021/01/15 05:12:12;;;;;;;2.85;1.80;;;;;;;11.69;53.24;101065.94;4883373;28;98037;-61
2021/01/15 05:14:38;;;;;;;3.13;1.67;;;;;;;11.69;52.97;101072.13;4884980;28;99238;-62
2021/01/15 05:17:06;;;;;;;3.10;1.85;;;;;;;11.67;53.12;101062.66;4902452;28;98986;-62
2021/01/15 05:19:33;;;;;;;2.50;1.60;;;;;;;11.70;52.95;101071.06;4897416;28;97889;-62
2021/01/15 05:21:59;;;;;;;2.88;2.10;;;;;;;11.71;53.34;101071.88;4900932;28;98340;-61
2021/01/15 05:24:26;;;;;;;2.40;1.60;;;;;;;11.71;53.02;101079.97;4894730;28;107118;-61
2021/01/15 05:26:52;;;;;;;2.30;1.60;;;;;;;11.71;53.11;101085.38;4902636;28;98766;-62
2021/01/15 05:29:18;;;;;;;2.22;1.70;;;;;;;11.72;53.22;101081.63;4892703;28;114359;-61
2021/01/15 05:31:55;;;;;;;2.67;1.67;;;;;;;11.69;53.28;101084.81;4901963;28;97975;-62
2021/01/15 05:34:25;;;;;;;2.80;1.48;;;;;;;11.71;53.23;101085.38;4900475;28;106823;-61
2021/01/15 05:36:52;;;;;;;2.70;1.80;;;;;;;11.69;52.95;101087.53;4883766;28;116567;-62
2021/01/15 05:39:27;;;;;;;2.60;1.65;;;;;;;11.67;53.10;101089.66;4901663;28;98230;-62
2021/01/15 05:42:03;;;;;;;2.22;1.67;;;;;;;11.66;53.26;101096.13;4888910;28;97859;-62
2021/01/15 05:44:33;;;;;;;2.22;1.52;;;;;;;11.67;53.22;101093.19;4883487;28;98406;-62
2021/01/15 05:47:00;;;;;;;2.13;1.38;;;;;;;11.67;52.90;101098.59;4897697;28;119422;-62
2021/01/15 05:49:27;;;;;;;2.33;1.25;;;;;;;11.64;52.92;101101.81;4900613;28;97864;-62
2021/01/15 05:51:53;;;;;;;2.70;1.65;;;;;;;11.65;53.29;101095.34;4884100;28;114342;-62
2021/01/15 05:54:33;;;;;;;1.95;1.35;;;;;;;11.64;53.13;101101.00;4871648;28;98571;-62
2021/01/15 05:57:00;;;;;;;2.38;1.38;;;;;;;11.63;52.96;101108.28;4902672;28;98092;-62
2021/01/15 05:59:26;;;;;;;2.00;1.48;;;;;;;11.65;53.21;101102.63;4921765;28;98281;-62
2021/01/15 06:01:59;;;;;;;2.67;1.40;;;;;;;11.65;52.92;101106.13;4921560;28;98001;-62
2021/01/15 06:04:31;;;;;;;2.25;1.50;;;;;;;11.63;53.43;101104.75;4919640;28;110029;-62
2021/01/15 06:07:18;;;;;;;2.07;1.40;;;;;;;11.65;52.76;101114.22;4922333;28;98483;-62
2021/01/15 06:09:46;;;;;;;1.88;1.40;;;;;;;11.65;52.90;101111.53;4919585;28;97898;-61
2021/01/15 06:12:19;;;;;;;2.30;1.48;;;;;;;11.64;53.26;101111.81;4902205;28;97946;-62
2021/01/15 06:14:58;;;;;;;2.53;1.40;;;;;;;11.67;53.14;101114.81;4919634;28;98438;-62
2021/01/15 06:17:25;;;;;;;2.40;1.40;;;;;;;11.68;53.27;101113.72;4920963;28;98681;-62
2021/01/15 06:19:55;;;;;;;2.72;1.50;;;;;;;11.69;52.82;101123.44;4921799;28;98005;-62
2021/01/15 06:22:44;;;;;;;2.08;1.05;;;;;;;11.65;52.71;101132.31;4918998;28;98128;-62
2021/01/15 06:25:33;;;;;;;2.67;1.60;;;;;;;11.65;53.46;101129.63;4920758;28;98983;-62
2021/01/15 06:28:04;;;;;;;2.17;1.20;;;;;;;11.64;53.06;101142.31;4920156;28;98400;-62
2021/01/15 06:30:32;;;;;;;2.17;1.30;;;;;;;11.66;53.27;101140.16;4917980;28;98294;-61
2021/01/15 06:33:11;;;;;;;2.55;1.33;;;;;;;11.63;53.31;101137.16;4918322;28;99281;-62
2021/01/15 06:35:42;;;;;;;2.63;1.58;;;;;;;11.64;52.88;101141.50;4919315;28;114304;-62
2021/01/15 06:38:13;;;;;;;2.65;1.63;;;;;;;11.60;52.97;101141.22;4920166;28;98813;-62
2021/01/15 06:40:49;;;;;;;3.45;1.83;;;;;;;11.59;53.61;101144.16;4921211;28;97753;-62
2021/01/15 06:43:34;;;;;;;2.45;1.60;;;;;;;11.58;52.97;101148.75;4920351;28;98170;-62
2021/01/15 06:46:06;;;;;;;2.88;1.60;;;;;;;11.60;53.32;101145.78;4920423;28;98985;-62
2021/01/15 06:48:36;;;;;;;3.37;2.07;;;;;;;11.58;52.73;101153.31;4911152;28;128557;-62
2021/01/15 06:51:03;;;;;;;2.95;1.90;;;;;;;11.60;53.43;101152.00;4901895;28;110974;-62
2021/01/15 06:53:34;;;;;;;3.20;1.70;;;;;;;11.57;53.22;101163.31;4911994;28;110652;-62
2021/01/15 06:56:02;;;;;;;2.75;1.70;;;;;;;11.55;53.22;101163.59;4885227;28;98809;-62
2021/01/15 06:58:41;;;;;;;2.45;1.48;;;;;;;11.55;53.14;101165.44;4892467;28;98553;-62
2021/01/15 07:01:44;;;;;;;2.33;1.60;;;;;;;11.52;52.98;101164.09;4900729;28;118204;-62
2021/01/15 07:04:27;;;;;;;2.63;1.42;;;;;;;11.51;53.21;101177.81;4850878;28;109855;-62
2021/01/15 07:07:14;;;;;;;2.40;1.52;;;;;;;11.51;53.39;101175.13;4863041;28;98089;-62
2021/01/15 07:09:45;;;;;;;2.58;1.50;;;;;;;11.52;53.56;101176.78;4895339;28;97979;-62
2021/01/15 07:12:14;;;;;;;2.55;1.60;;;;;;;11.56;53.06;101186.00;4881319;28;98172;-62
2021/01/15 07:14:54;;;;;;;2.38;1.60;;;;;;;11.52;53.30;101177.59;4900448;28;97742;-62
2021/01/15 07:17:31;;;;;;;2.35;1.50;;;;;;;11.53;53.32;101184.63;4899533;28;98468;-61
2021/01/15 07:20:18;;;;;;;2.30;1.50;;;;;;;11.52;52.86;101191.09;4901006;28;98675;-61
2021/01/15 07:23:15;;;;;;;1.98;1.27;;;;;;;11.52;53.33;101187.59;4898454;28;99637;-61
2021/01/15 07:25:48;;;;;;;3.15;1.55;;;;;;;11.54;53.50;101191.63;4877652;28;97975;-62
2021/01/15 07:28:15;;;;;;;2.58;1.40;;;;;;;11.57;53.11;101193.03;4895419;28;98310;-62
2021/01/15 07:30:41;;;;;;;2.60;1.50;;;;;;;11.56;53.17;101199.50;4879168;28;98725;-62
2021/01/15 07:33:07;;;;;;;2.78;1.50;;;;;;;11.57;53.28;101203.81;4896916;28;128024;-62
2021/01/15 07:35:37;;;;;;;2.90;1.50;;;;;;;11.62;53.07;101203.03;4882623;28;98025;-62
2021/01/15 07:38:13;;;;;;;2.33;1.52;;;;;;;11.56;53.11;101202.19;4899092;28;120043;-61
2021/01/15 07:40:39;;;;;;;1.95;1.40;;;;;;;11.59;52.87;101200.84;4891464;28;98340;-61
2021/01/15 07:43:07;;;;;;;2.05;1.35;;;;;;;11.59;53.12;101206.25;4882770;28;98004;-62
2021/01/15 07:45:39;;;;;;;3.05;1.45;;;;;;;11.59;53.15;101206.25;4883993;28;97983;-62
2021/01/15 07:48:07;;;;;;;2.10;1.27;;;;;;;11.59;53.22;101211.66;4893824;28;98853;-61
2021/01/15 07:50:35;;;;;;;1.90;1.40;;;;;;;11.58;52.99;101204.63;4902752;28;98155;-62
2021/01/15 07:53:14;;;;;;;2.10;1.40;;;;;;;11.58;53.05;101210.84;4881007;28;118395;-62
2021/01/15 07:56:00;;;;;;;1.92;1.40;;;;;;;11.58;53.09;101212.72;4898363;28;97955;-62
2021/01/15 07:58:47;;;;;;;2.20;1.25;;;;;;;11.54;53.83;101226.72;4910617;28;98513;-62
2021/01/15 08:01:16;;;;;;;2.20;1.60;;;;;;;11.57;53.72;101221.91;4921687;28;98582;-61
2021/01/15 08:03:47;;;;;;;1.92;1.30;;;;;;;11.58;54.01;101226.22;4915237;28;98757;-61
2021/01/15 08:06:16;;;;;;;2.22;1.50;;;;;;;11.57;54.16;101224.59;4906534;28;97797;-62
2021/01/15 08:09:02;;;;;;;2.00;1.20;;;;;;;11.54;54.27;101228.63;4904903;28;98484;-61
2021/01/15 08:11:29;;;;;;;2.10;1.30;;;;;;;11.56;54.44;101223.81;4922958;28;98654;-61
2021/01/15 08:14:20;;;;;;;1.95;1.40;;;;;;;11.57;54.53;101230.00;4906535;28;98481;-61
2021/01/15 08:16:47;;;;;;;2.28;1.40;;;;;;;11.55;54.80;101236.50;4923065;28;98918;-61
2021/01/15 08:19:16;;;;;;;2.42;1.40;;;;;;;11.52;54.82;101234.28;4923413;28;99033;-61
2021/01/15 08:21:43;;;;;;;2.17;1.35;;;;;;;11.54;55.17;101239.44;4922558;28;99082;-61
2021/01/15 08:24:09;;;;;;;2.58;1.65;;;;;;;11.53;55.12;101233.22;4922275;28;98129;-61
2021/01/15 08:26:51;;;;;;;2.60;1.60;;;;;;;11.53;55.57;101237.81;4904758;28;98079;-61
2021/01/15 08:29:18;;;;;;;2.40;1.80;;;;;;;11.55;55.28;101230.25;4905174;28;98968;-61
2021/01/15 08:31:45;;;;;;;2.38;1.77;;;;;;;11.59;55.50;101241.34;4921205;28;99484;-61
2021/01/15 08:34:19;;;;;;;2.47;1.90;;;;;;;11.55;55.63;101239.19;4922756;28;112230;-62
2021/01/15 08:36:50;;;;;;;2.90;2.17;;;;;;;11.57;55.77;101238.91;4922807;28;98040;-61
2021/01/15 08:39:16;;;;;;;3.30;2.60;;;;;;;11.56;56.30;101242.69;4894507;28;98136;-61
2021/01/15 08:41:43;;;;;;;3.35;2.50;;;;;;;11.56;56.13;101242.69;4902845;28;98449;-61
2021/01/15 08:44:14;;;;;;;3.22;2.38;;;;;;;11.60;56.34;101245.72;4903234;28;97822;-61
2021/01/15 08:46:40;;;;;;;3.35;2.53;;;;;;;11.60;56.04;101238.41;4903712;28;97988;-62
2021/01/15 08:49:10;;;;;;;3.60;2.70;;;;;;;11.61;56.34;101245.44;4903158;28;99725;-61
2021/01/15 08:51:36;;;;;;;4.45;2.83;;;;;;;11.60;56.05;101240.31;4903845;28;99186;-62
2021/01/15 08:54:05;;;;;;;4.80;2.85;;;;;;;11.61;56.32;101252.72;4903185;28;97938;-62
2021/01/15 08:56:41;;;;;;;4.15;2.83;;;;;;;11.56;56.42;101253.50;4904583;28;97841;-62
2021/01/15 08:59:27;;;;;;;3.85;3.20;;;;;;;11.54;56.81;101248.34;4892096;28;98395;-62
2021/01/15 09:01:57;;;;;;;4.43;3.58;;;;;;;11.56;56.50;101253.50;4900788;28;99393;-62
2021/01/15 09:04:28;;;;;;;4.07;3.05;;;;;;;11.55;56.94;101251.84;4884967;28;98484;-61
2021/01/15 09:06:56;;;;;;;3.83;3.17;;;;;;;11.52;56.34;101255.88;4902668;28;97904;-62
2021/01/15 09:09:23;;;;;;;4.05;2.70;;;;;;;11.51;56.82;101248.88;4899899;28;98920;-61
2021/01/15 09:11:51;;;;;;;3.38;2.80;;;;;;;11.49;56.73;101259.09;4884408;28;98351;-62
2021/01/15 09:14:27;;;;;;;3.20;2.38;;;;;;;11.47;56.69;101258.50;4902615;28;98556;-62
2021/01/15 09:16:55;;;;;;;3.05;2.20;;;;;;;11.55;56.39;101257.25;4902087;28;97789;-62
2021/01/15 09:19:21;;;;;;;3.15;2.35;;;;;;;11.57;56.41;101265.09;4902455;28;98870;-61
2021/01/15 09:22:06;;;;;;;2.90;2.38;;;;;;;11.60;56.45;101262.72;4902174;28;119808;-62
2021/01/15 09:24:33;;;;;;;3.15;2.30;;;;;;;11.63;56.94;101264.06;4904083;28;97928;-61
2021/01/15 09:27:17;;;;;;;2.88;2.22;;;;;;;11.65;56.93;101265.47;4901491;28;98373;-61
2021/01/15 09:29:43;;;;;;;2.95;2.30;;;;;;;11.66;56.86;101271.69;4896851;28;127834;-61
2021/01/15 09:32:09;;;;;;;3.88;2.50;;;;;;;11.65;56.68;101270.88;4901030;28;98463;-61
2021/01/15 09:34:35;;;;;;;3.33;2.47;;;;;;;11.69;57.00;101274.69;4862377;28;116335;-61
2021/01/15 09:37:02;;;;;;;3.55;2.53;;;;;;;11.75;56.95;101275.53;4881207;28;122994;-61
2021/01/15 09:39:28;;;;;;;3.85;2.53;;;;;;;11.77;56.73;101270.72;4889281;28;98462;-61
2021/01/15 09:41:56;;;;;;;3.10;2.33;;;;;;;11.82;56.58;101273.44;4902382;28;98592;-61
2021/01/15 09:44:23;;;;;;;3.25;2.42;;;;;;;11.85;56.90;101272.97;4902817;28;97974;-62
2021/01/15 09:46:54;;;;;;;3.95;2.70;;;;;;;11.86;57.00;101274.59;4901790;28;98002;-61
2021/01/15 09:49:20;;;;;;;4.15;2.88;;;;;;;11.88;57.13;101283.28;4902525;28;113630;-62
2021/01/15 09:51:49;;;;;;;3.95;2.85;;;;;;;11.86;57.16;101282.69;4882148;28;100186;-61
2021/01/15 09:54:15;;;;;;;3.40;2.60;;;;;;;11.85;57.17;101282.97;4885482;28;98379;-62
2021/01/15 09:56:42;;;;;;;4.10;3.20;;;;;;;11.83;57.44;101285.94;4920354;28;122212;-61
2021/01/15 09:59:12;;;;;;;3.55;3.13;;;;;;;11.78;57.28;101292.06;4920695;28;97813;-61
2021/01/15 10:01:38;;;;;;;3.58;3.28;;;;;;;11.75;57.60;101294.44;4920932;28;97765;-62
2021/01/15 10:04:05;;;;;;;4.82;3.58;;;;;;;11.74;57.50;101287.41;4921485;28;98234;-62
2021/01/15 10:06:32;;;;;;;4.80;3.97;;;;;;;11.67;57.66;101297.59;4916989;28;113983;-62
2021/01/15 10:08:59;;;;;;;4.57;3.90;;;;;;;11.70;57.37;101291.69;4899331;28;98911;-62
2021/01/15 10:11:30;;;;;;;4.80;3.40;;;;;;;11.74;57.43;101296.34;4900986;28;98673;-62
2021/01/15 10:14:00;;;;;;;5.38;3.70;;;;;;;11.80;57.10;101298.03;4910890;28;97946;-61
2021/01/15 10:16:26;;;;;;;5.28;3.90;;;;;;;11.85;56.82;101293.78;4920767;28;97903;-62
2021/01/15 10:18:53;;;;;;;4.53;3.92;;;;;;;11.85;56.91;101296.47;4912140;28;97992;-62
2021/01/15 10:21:23;;;;;;;5.20;3.88;;;;;;;11.86;56.92;101288.09;4913897;28;98659;-62
2021/01/15 10:23:51;;;;;;;4.53;3.47;;;;;;;11.84;56.91;101290.25;4908152;28;98138;-62
2021/01/15 10:26:30;;;;;;;4.45;3.60;;;;;;;11.84;56.79;101292.97;4915864;28;97843;-62
2021/01/15 10:28:57;;;;;;;4.70;3.53;;;;;;;11.88;56.83;101295.97;4874757;28;98256;-62
2021/01/15 10:31:24;;;;;;;3.92;3.42;;;;;;;11.90;56.34;101288.41;4882859;28;98415;-61
2021/01/15 10:33:50;;;;;;;4.03;3.45;;;;;;;11.85;57.27;101291.06;4877749;28;99142;-62
2021/01/15 10:36:16;;;;;;;4.10;3.50;;;;;;;11.90;56.69;101291.94;4918490;28;97919;-62
2021/01/15 10:38:42;;;;;;;4.18;3.40;;;;;;;11.91;57.09;101293.56;4920329;28;128126;-62
2021/01/15 10:41:09;;;;;;;5.15;3.72;;;;;;;11.94;56.63;101287.63;4921415;28;98295;-62
2021/01/15 10:43:35;;;;;;;4.78;3.30;;;;;;;11.97;56.33;101295.25;4921449;28;98333;-62
2021/01/15 10:46:01;;;;;;;4.00;3.53;;;;;;;11.98;56.28;101285.25;4920030;28;122233;-62
2021/01/15 10:48:27;;;;;;;4.13;2.97;;;;;;;12.01;56.38;101285.53;4919728;28;128576;-62
2021/01/15 10:50:53;;;;;;;4.10;2.90;;;;;;;12.02;56.62;101289.91;4919694;28;111158;-62
2021/01/15 10:53:19;;;;;;;3.72;3.17;;;;;;;12.03;56.23;101279.91;4920099;28;127303;-62
2021/01/15 10:55:48;;;;;;;3.67;3.28;;;;;;;12.02;56.24;101284.50;4919797;28;97926;-62
2021/01/15 10:58:14;;;;;;;3.40;2.97;;;;;;;12.05;56.49;101285.84;4920399;28;99471;-62
2021/01/15 11:00:40;;;;;;;3.95;2.90;;;;;;;12.03;56.54;101288.81;4920754;28;114365;-62
2021/01/15 11:03:06;;;;;;;3.45;3.00;;;;;;;12.03;56.90;101291.53;4911774;28;98428;-62
2021/01/15 11:05:33;;;;;;;4.15;2.95;;;;;;;12.07;56.73;101291.81;4920350;28;121255;-62
2021/01/15 11:07:59;;;;;;;3.97;3.10;;;;;;;12.07;56.91;101291.00;4920522;28;102441;-61
2021/01/15 11:10:25;;;;;;;4.28;3.33;;;;;;;12.09;56.58;101291.56;4920148;28;127987;-62
2021/01/15 11:12:55;;;;;;;3.80;2.70;;;;;;;12.07;57.06;101289.13;4911152;28;126255;-62
2021/01/15 11:15:22;;;;;;;3.50;2.80;;;;;;;12.09;56.72;101294.25;4872713;28;109964;-61
2021/01/15 11:17:48;;;;;;;3.40;2.88;;;;;;;12.05;56.90;101293.97;4910910;28;115801;-61
2021/01/15 11:20:14;;;;;;;3.13;2.80;;;;;;;12.08;57.27;101289.94;4920114;28;125987;-62
2021/01/15 11:22:41;;;;;;;4.97;3.33;;;;;;;12.03;56.78;101296.13;4918264;28;116800;-62
2021/01/15 11:25:07;;;;;;;4.57;3.28;;;;;;;12.01;57.29;101303.66;4905784;28;97955;-62
2021/01/15 11:27:34;;;;;;;4.82;3.28;;;;;;;12.01;57.02;101292.84;4923624;28;114283;-61
2021/01/15 11:30:01;;;;;;;3.95;2.85;;;;;;;11.96;57.54;101298.22;4923459;28;101195;-62
2021/01/15 11:32:27;;;;;;;2.67;2.30;;;;;;;11.96;57.69;101293.63;4919353;28;98162;-61
2021/01/15 11:34:54;;;;;;;3.80;2.95;;;;;;;11.98;57.41;101288.75;4919675;28;122227;-61
2021/01/15 11:37:22;;;;;;;3.88;3.00;;;;;;;12.01;57.68;101284.72;4890272;28;98133;-61